sensor_id;sensor_type;location;lat;lon;timestamp;temperature;humidity
16140;DHT22;8175;49.326;12.690;2023-06-04T00:00:25;11.60;84.40
16140;DHT22;8175;49.326;12.690;2023-06-04T00:02:51;11.60;86.50
16140;DHT22;8175;49.326;12.690;2023-06-04T00:05:17;11.60;86.60
16140;DHT22;8175;49.326;12.690;2023-06-04T00:07:42;11.50;86.20
16140;DHT22;8175;49.326;12.690;2023-06-04T00:10:09;11.30;86.90
16140;DHT22;8175;49.326;12.690;2023-06-04T00:12:35;11.20;87.70
16140;DHT22;8175;49.326;12.690;2023-06-04T00:15:01;11.00;90.60
16140;DHT22;8175;49.326;12.690;2023-06-04T00:17:26;10.70;91.10
16140;DHT22;8175;49.326;12.690;2023-06-04T00:19:52;10.60;92.20
16140;DHT22;8175;49.326;12.690;2023-06-04T00:22:18;10.30;92.90
16140;DHT22;8175;49.326;12.690;2023-06-04T00:24:43;10.10;92.20
16140;DHT22;8175;49.326;12.690;2023-06-04T00:27:09;10.00;92.40
16140;DHT22;8175;49.326;12.690;2023-06-04T00:29:35;9.90;92.80
16140;DHT22;8175;49.326;12.690;2023-06-04T00:32:03;9.80;94.30
16140;DHT22;8175;49.326;12.690;2023-06-04T00:34:28;9.80;94.20
16140;DHT22;8175;49.326;12.690;2023-06-04T00:36:54;9.70;94.00
16140;DHT22;8175;49.326;12.690;2023-06-04T00:39:20;9.70;96.10
16140;DHT22;8175;49.326;12.690;2023-06-04T00:41:46;9.60;95.50
16140;DHT22;8175;49.326;12.690;2023-06-04T00:44:12;9.50;95.60
16140;DHT22;8175;49.326;12.690;2023-06-04T00:46:38;9.40;95.40
16140;DHT22;8175;49.326;12.690;2023-06-04T00:49:05;9.40;96.00
16140;DHT22;8175;49.326;12.690;2023-06-04T00:51:32;9.30;96.30
16140;DHT22;8175;49.326;12.690;2023-06-04T00:53:58;9.20;97.40
16140;DHT22;8175;49.326;12.690;2023-06-04T00:56:24;9.10;97.10
16140;DHT22;8175;49.326;12.690;2023-06-04T00:58:50;9.00;97.60
16140;DHT22;8175;49.326;12.690;2023-06-04T01:01:31;9.00;99.90
16140;DHT22;8175;49.326;12.690;2023-06-04T01:04:02;9.00;99.90
16140;DHT22;8175;49.326;12.690;2023-06-04T01:06:39;8.90;99.90
16140;DHT22;8175;49.326;12.690;2023-06-04T01:09:05;8.80;99.90
16140;DHT22;8175;49.326;12.690;2023-06-04T01:11:36;8.70;99.90
16140;DHT22;8175;49.326;12.690;2023-06-04T01:14:06;8.60;99.90
16140;DHT22;8175;49.326;12.690;2023-06-04T01:16:49;8.50;99.90
16140;DHT22;8175;49.326;12.690;2023-06-04T01:23:32;8.40;99.90
16140;DHT22;8175;49.326;12.690;2023-06-04T01:25:39;8.30;99.90
16140;DHT22;8175;49.326;12.690;2023-06-04T01:28:06;8.30;99.90
16140;DHT22;8175;49.326;12.690;2023-06-04T01:30:34;8.20;99.90
16140;DHT22;8175;49.326;12.690;2023-06-04T01:33:01;8.10;99.90
16140;DHT22;8175;49.326;12.690;2023-06-04T01:35:27;8.00;99.90
16140;DHT22;8175;49.326;12.690;2023-06-04T01:37:54;8.00;99.90
16140;DHT22;8175;49.326;12.690;2023-06-04T01:40:20;7.90;99.90
16140;DHT22;8175;49.326;12.690;2023-06-04T01:42:46;7.80;99.90
16140;DHT22;8175;49.326;12.690;2023-06-04T01:45:12;7.70;99.90
16140;DHT22;8175;49.326;12.690;2023-06-04T01:47:38;7.70;99.90
16140;DHT22;8175;49.326;12.690;2023-06-04T01:50:07;7.60;99.90
16140;DHT22;8175;49.326;12.690;2023-06-04T01:52:38;7.60;99.90
16140;DHT22;8175;49.326;12.690;2023-06-04T01:55:05;7.50;99.90
16140;DHT22;8175;49.326;12.690;2023-06-04T01:57:30;7.50;99.90
16140;DHT22;8175;49.326;12.690;2023-06-04T01:59:56;7.40;99.90
16140;DHT22;8175;49.326;12.690;2023-06-04T02:02:22;7.30;99.90
16140;DHT22;8175;49.326;12.690;2023-06-04T02:04:48;7.20;99.90
16140;DHT22;8175;49.326;12.690;2023-06-04T02:07:18;7.20;99.90
16140;DHT22;8175;49.326;12.690;2023-06-04T02:09:46;7.20;99.90
16140;DHT22;8175;49.326;12.690;2023-06-04T02:12:12;7.20;99.90
16140;DHT22;8175;49.326;12.690;2023-06-04T02:14:38;7.10;99.90
16140;DHT22;8175;49.326;12.690;2023-06-04T02:17:04;7.10;99.90
16140;DHT22;8175;49.326;12.690;2023-06-04T02:19:30;7.00;99.90
16140;DHT22;8175;49.326;12.690;2023-06-04T02:21:58;6.90;99.90
16140;DHT22;8175;49.326;12.690;2023-06-04T02:24:24;6.80;99.90
16140;DHT22;8175;49.326;12.690;2023-06-04T02:26:50;6.80;99.90
16140;DHT22;8175;49.326;12.690;2023-06-04T02:29:15;6.90;99.90
16140;DHT22;8175;49.326;12.690;2023-06-04T02:31:41;7.00;99.90
16140;DHT22;8175;49.326;12.690;2023-06-04T02:34:06;7.00;99.90
16140;DHT22;8175;49.326;12.690;2023-06-04T02:36:33;7.00;99.90
16140;DHT22;8175;49.326;12.690;2023-06-04T02:38:59;7.00;99.90
16140;DHT22;8175;49.326;12.690;2023-06-04T02:41:26;7.00;99.90
16140;DHT22;8175;49.326;12.690;2023-06-04T02:43:52;7.10;99.90
16140;DHT22;8175;49.326;12.690;2023-06-04T02:46:17;7.10;99.90
16140;DHT22;8175;49.326;12.690;2023-06-04T02:48:43;7.00;99.90
16140;DHT22;8175;49.326;12.690;2023-06-04T02:51:08;7.00;99.90
16140;DHT22;8175;49.326;12.690;2023-06-04T02:53:36;7.00;99.90
16140;DHT22;8175;49.326;12.690;2023-06-04T02:56:02;6.90;99.90
16140;DHT22;8175;49.326;12.690;2023-06-04T02:58:27;6.90;99.90
16140;DHT22;8175;49.326;12.690;2023-06-04T03:00:54;6.80;99.90
16140;DHT22;8175;49.326;12.690;2023-06-04T03:03:21;6.90;99.90
16140;DHT22;8175;49.326;12.690;2023-06-04T03:05:47;6.80;99.90
16140;DHT22;8175;49.326;12.690;2023-06-04T03:08:13;6.80;99.90
16140;DHT22;8175;49.326;12.690;2023-06-04T04:03:11;6.50;99.90
16140;DHT22;8175;49.326;12.690;2023-06-04T04:05:37;6.40;99.90
16140;DHT22;8175;49.326;12.690;2023-06-04T04:08:03;6.50;99.90
16140;DHT22;8175;49.326;12.690;2023-06-04T04:10:29;6.50;99.90
16140;DHT22;8175;49.326;12.690;2023-06-04T04:12:55;6.60;99.90
16140;DHT22;8175;49.326;12.690;2023-06-04T04:15:22;6.70;99.90
16140;DHT22;8175;49.326;12.690;2023-06-04T04:17:48;6.70;99.90
16140;DHT22;8175;49.326;12.690;2023-06-04T04:20:14;6.70;99.90
16140;DHT22;8175;49.326;12.690;2023-06-04T04:22:41;6.70;99.90
16140;DHT22;8175;49.326;12.690;2023-06-04T04:25:08;6.70;99.90
16140;DHT22;8175;49.326;12.690;2023-06-04T04:27:34;6.70;99.90
16140;DHT22;8175;49.326;12.690;2023-06-04T04:30:04;6.70;99.90
16140;DHT22;8175;49.326;12.690;2023-06-04T04:32:30;6.70;99.90
16140;DHT22;8175;49.326;12.690;2023-06-04T04:34:57;6.80;99.90
16140;DHT22;8175;49.326;12.690;2023-06-04T04:37:23;6.90;99.90
16140;DHT22;8175;49.326;12.690;2023-06-04T04:39:49;6.90;99.90
16140;DHT22;8175;49.326;12.690;2023-06-04T04:50:24;6.90;99.90
16140;DHT22;8175;49.326;12.690;2023-06-04T04:52:50;6.90;99.90
16140;DHT22;8175;49.326;12.690;2023-06-04T04:55:16;6.90;99.90
16140;DHT22;8175;49.326;12.690;2023-06-04T04:57:41;7.00;99.90
16140;DHT22;8175;49.326;12.690;2023-06-04T05:00:07;7.00;99.90
16140;DHT22;8175;49.326;12.690;2023-06-04T05:02:37;7.00;99.90
16140;DHT22;8175;49.326;12.690;2023-06-04T05:05:03;7.10;99.90
16140;DHT22;8175;49.326;12.690;2023-06-04T05:07:29;7.20;99.90
16140;DHT22;8175;49.326;12.690;2023-06-04T05:09:55;7.30;99.90
16140;DHT22;8175;49.326;12.690;2023-06-04T05:12:21;7.40;99.90
16140;DHT22;8175;49.326;12.690;2023-06-04T05:14:46;7.50;99.90
16140;DHT22;8175;49.326;12.690;2023-06-04T05:17:12;7.60;99.90
16140;DHT22;8175;49.326;12.690;2023-06-04T05:19:38;7.70;99.90
16140;DHT22;8175;49.326;12.690;2023-06-04T05:22:04;7.80;99.90
16140;DHT22;8175;49.326;12.690;2023-06-04T05:24:31;7.80;99.90
16140;DHT22;8175;49.326;12.690;2023-06-04T05:26:58;7.90;99.90
16140;DHT22;8175;49.326;12.690;2023-06-04T05:29:23;8.00;99.90
16140;DHT22;8175;49.326;12.690;2023-06-04T05:31:49;8.20;99.90
16140;DHT22;8175;49.326;12.690;2023-06-04T05:34:15;8.30;99.90
16140;DHT22;8175;49.326;12.690;2023-06-04T05:36:42;8.50;99.90
16140;DHT22;8175;49.326;12.690;2023-06-04T05:39:11;8.60;99.90
16140;DHT22;8175;49.326;12.690;2023-06-04T05:41:37;8.80;99.90
16140;DHT22;8175;49.326;12.690;2023-06-04T05:44:03;9.00;99.90
16140;DHT22;8175;49.326;12.690;2023-06-04T05:46:29;9.10;99.90
16140;DHT22;8175;49.326;12.690;2023-06-04T05:48:54;9.20;99.90
16140;DHT22;8175;49.326;12.690;2023-06-04T05:51:20;9.40;99.90
16140;DHT22;8175;49.326;12.690;2023-06-04T05:53:46;9.60;99.90
16140;DHT22;8175;49.326;12.690;2023-06-04T05:56:13;9.80;99.90
16140;DHT22;8175;49.326;12.690;2023-06-04T05:58:38;9.90;99.90
16140;DHT22;8175;49.326;12.690;2023-06-04T06:01:04;10.10;99.90
16140;DHT22;8175;49.326;12.690;2023-06-04T06:03:31;10.30;99.90
16140;DHT22;8175;49.326;12.690;2023-06-04T06:05:57;10.50;99.90
16140;DHT22;8175;49.326;12.690;2023-06-04T06:08:25;10.60;99.90
16140;DHT22;8175;49.326;12.690;2023-06-04T06:10:50;10.80;99.90
16140;DHT22;8175;49.326;12.690;2023-06-04T06:13:16;10.90;99.90
16140;DHT22;8175;49.326;12.690;2023-06-04T06:15:42;11.10;99.90
16140;DHT22;8175;49.326;12.690;2023-06-04T06:18:08;11.20;99.90
16140;DHT22;8175;49.326;12.690;2023-06-04T06:20:34;11.40;99.90
16140;DHT22;8175;49.326;12.690;2023-06-04T06:23:06;11.60;99.90
16140;DHT22;8175;49.326;12.690;2023-06-04T06:25:32;11.70;99.90
16140;DHT22;8175;49.326;12.690;2023-06-04T06:27:58;11.90;99.90
16140;DHT22;8175;49.326;12.690;2023-06-04T06:30:24;12.00;99.90
16140;DHT22;8175;49.326;12.690;2023-06-04T06:32:50;12.10;99.90
16140;DHT22;8175;49.326;12.690;2023-06-04T06:35:17;12.30;99.90
16140;DHT22;8175;49.326;12.690;2023-06-04T06:37:43;12.40;99.90
16140;DHT22;8175;49.326;12.690;2023-06-04T06:40:10;12.40;99.90
16140;DHT22;8175;49.326;12.690;2023-06-04T06:42:36;12.50;99.90
16140;DHT22;8175;49.326;12.690;2023-06-04T06:45:01;12.60;99.90
16140;DHT22;8175;49.326;12.690;2023-06-04T06:47:27;12.80;99.90
16140;DHT22;8175;49.326;12.690;2023-06-04T06:49:53;13.00;99.90
16140;DHT22;8175;49.326;12.690;2023-06-04T06:52:19;13.20;99.90
16140;DHT22;8175;49.326;12.690;2023-06-04T06:54:45;13.50;99.90
16140;DHT22;8175;49.326;12.690;2023-06-04T06:57:11;13.70;99.90
16140;DHT22;8175;49.326;12.690;2023-06-04T06:59:37;14.00;99.90
16140;DHT22;8175;49.326;12.690;2023-06-04T07:02:04;14.90;99.90
16140;DHT22;8175;49.326;12.690;2023-06-04T07:04:30;15.70;99.90
16140;DHT22;8175;49.326;12.690;2023-06-04T07:06:56;15.90;99.90
16140;DHT22;8175;49.326;12.690;2023-06-04T07:09:21;16.50;99.90
16140;DHT22;8175;49.326;12.690;2023-06-04T07:11:47;16.80;99.90
16140;DHT22;8175;49.326;12.690;2023-06-04T07:14:14;17.00;99.90
16140;DHT22;8175;49.326;12.690;2023-06-04T07:16:40;17.00;99.90
16140;DHT22;8175;49.326;12.690;2023-06-04T07:19:06;17.40;99.90
16140;DHT22;8175;49.326;12.690;2023-06-04T07:21:31;17.40;99.90
16140;DHT22;8175;49.326;12.690;2023-06-04T07:23:57;16.80;99.90
16140;DHT22;8175;49.326;12.690;2023-06-04T07:26:23;17.00;99.90
16140;DHT22;8175;49.326;12.690;2023-06-04T07:28:50;17.10;99.90
16140;DHT22;8175;49.326;12.690;2023-06-04T07:31:16;17.40;99.90
16140;DHT22;8175;49.326;12.690;2023-06-04T07:33:42;17.70;99.90
16140;DHT22;8175;49.326;12.690;2023-06-04T07:36:14;18.80;99.90
16140;DHT22;8175;49.326;12.690;2023-06-04T07:38:40;20.60;99.90
16140;DHT22;8175;49.326;12.690;2023-06-04T07:41:06;22.80;96.30
16140;DHT22;8175;49.326;12.690;2023-06-04T07:43:33;24.00;91.30
16140;DHT22;8175;49.326;12.690;2023-06-04T07:46:01;24.90;86.40
16140;DHT22;8175;49.326;12.690;2023-06-04T07:48:27;25.30;81.90
16140;DHT22;8175;49.326;12.690;2023-06-04T07:51:00;25.60;80.30
16140;DHT22;8175;49.326;12.690;2023-06-04T07:53:26;25.70;71.70
16140;DHT22;8175;49.326;12.690;2023-06-04T07:55:52;26.40;69.60
16140;DHT22;8175;49.326;12.690;2023-06-04T07:58:18;26.40;67.60
16140;DHT22;8175;49.326;12.690;2023-06-04T08:00:44;26.20;64.80
16140;DHT22;8175;49.326;12.690;2023-06-04T08:03:10;26.00;60.60
16140;DHT22;8175;49.326;12.690;2023-06-04T08:05:36;26.00;62.60
16140;DHT22;8175;49.326;12.690;2023-06-04T08:08:02;26.00;66.10
16140;DHT22;8175;49.326;12.690;2023-06-04T08:10:29;26.30;61.80
16140;DHT22;8175;49.326;12.690;2023-06-04T08:12:55;26.80;59.60
16140;DHT22;8175;49.326;12.690;2023-06-04T08:15:21;26.70;65.60
16140;DHT22;8175;49.326;12.690;2023-06-04T08:17:47;26.80;61.70
16140;DHT22;8175;49.326;12.690;2023-06-04T08:20:13;27.20;61.50
16140;DHT22;8175;49.326;12.690;2023-06-04T08:22:38;26.80;58.00
16140;DHT22;8175;49.326;12.690;2023-06-04T08:25:04;26.00;60.60
16140;DHT22;8175;49.326;12.690;2023-06-04T08:27:30;25.60;65.00
16140;DHT22;8175;49.326;12.690;2023-06-04T08:29:56;25.90;58.00
16140;DHT22;8175;49.326;12.690;2023-06-04T08:32:23;26.00;61.70
16140;DHT22;8175;49.326;12.690;2023-06-04T08:34:48;26.00;59.50
16140;DHT22;8175;49.326;12.690;2023-06-04T08:37:14;25.70;59.20
16140;DHT22;8175;49.326;12.690;2023-06-04T08:39:40;26.30;61.10
16140;DHT22;8175;49.326;12.690;2023-06-04T08:42:07;26.70;56.40
16140;DHT22;8175;49.326;12.690;2023-06-04T08:44:35;26.50;57.90
16140;DHT22;8175;49.326;12.690;2023-06-04T08:47:05;27.10;58.10
16140;DHT22;8175;49.326;12.690;2023-06-04T08:49:35;26.60;56.40
16140;DHT22;8175;49.326;12.690;2023-06-04T08:52:04;26.50;57.20
16140;DHT22;8175;49.326;12.690;2023-06-04T08:54:31;26.80;61.10
16140;DHT22;8175;49.326;12.690;2023-06-04T08:56:57;27.10;59.20
16140;DHT22;8175;49.326;12.690;2023-06-04T08:59:23;27.20;56.70
16140;DHT22;8175;49.326;12.690;2023-06-04T09:01:53;26.00;56.60
16140;DHT22;8175;49.326;12.690;2023-06-04T09:04:19;26.80;59.10
16140;DHT22;8175;49.326;12.690;2023-06-04T09:06:44;26.50;56.50
16140;DHT22;8175;49.326;12.690;2023-06-04T09:09:12;26.30;59.90
16140;DHT22;8175;49.326;12.690;2023-06-04T09:11:52;26.90;59.70
16140;DHT22;8175;49.326;12.690;2023-06-04T09:14:18;26.40;53.60
16140;DHT22;8175;49.326;12.690;2023-06-04T09:16:47;25.50;58.90
16140;DHT22;8175;49.326;12.690;2023-06-04T09:19:14;26.20;58.00
16140;DHT22;8175;49.326;12.690;2023-06-04T09:21:48;26.60;55.30
16140;DHT22;8175;49.326;12.690;2023-06-04T09:24:13;27.50;56.30
16140;DHT22;8175;49.326;12.690;2023-06-04T09:26:39;27.30;60.50
16140;DHT22;8175;49.326;12.690;2023-06-04T09:29:05;27.20;56.40
16140;DHT22;8175;49.326;12.690;2023-06-04T09:31:31;26.40;56.60
16140;DHT22;8175;49.326;12.690;2023-06-04T09:34:02;25.90;59.70
16140;DHT22;8175;49.326;12.690;2023-06-04T09:36:34;26.90;57.50
16140;DHT22;8175;49.326;12.690;2023-06-04T09:39:02;25.30;57.60
16140;DHT22;8175;49.326;12.690;2023-06-04T09:41:28;26.20;57.10
16140;DHT22;8175;49.326;12.690;2023-06-04T09:44:01;27.60;57.00
16140;DHT22;8175;49.326;12.690;2023-06-04T09:46:28;27.70;55.00
16140;DHT22;8175;49.326;12.690;2023-06-04T09:49:02;27.80;55.80
16140;DHT22;8175;49.326;12.690;2023-06-04T09:51:28;28.00;53.40
16140;DHT22;8175;49.326;12.690;2023-06-04T09:53:59;27.80;56.40
16140;DHT22;8175;49.326;12.690;2023-06-04T09:56:25;25.80;60.30
16140;DHT22;8175;49.326;12.690;2023-06-04T09:58:58;26.20;59.20
16140;DHT22;8175;49.326;12.690;2023-06-04T10:01:27;26.00;55.60
16140;DHT22;8175;49.326;12.690;2023-06-04T10:03:54;26.80;52.20
16140;DHT22;8175;49.326;12.690;2023-06-04T10:06:21;27.20;56.80
16140;DHT22;8175;49.326;12.690;2023-06-04T10:08:49;27.50;53.30
16140;DHT22;8175;49.326;12.690;2023-06-04T10:11:23;28.20;53.70
16140;DHT22;8175;49.326;12.690;2023-06-04T10:14:00;28.20;51.90
16140;DHT22;8175;49.326;12.690;2023-06-04T10:16:27;28.00;54.70
16140;DHT22;8175;49.326;12.690;2023-06-04T10:18:54;28.10;49.40
16140;DHT22;8175;49.326;12.690;2023-06-04T10:21:21;28.80;51.30
16140;DHT22;8175;49.326;12.690;2023-06-04T10:23:48;28.90;51.60
16140;DHT22;8175;49.326;12.690;2023-06-04T10:26:14;28.40;53.50
16140;DHT22;8175;49.326;12.690;2023-06-04T10:28:41;29.10;52.90
16140;DHT22;8175;49.326;12.690;2023-06-04T10:31:09;29.70;48.60
16140;DHT22;8175;49.326;12.690;2023-06-04T10:33:35;30.10;51.40
16140;DHT22;8175;49.326;12.690;2023-06-04T10:36:20;30.60;48.80
16140;DHT22;8175;49.326;12.690;2023-06-04T10:38:47;31.40;47.30
16140;DHT22;8175;49.326;12.690;2023-06-04T10:41:17;29.80;48.70
16140;DHT22;8175;49.326;12.690;2023-06-04T10:43:45;29.90;49.60
16140;DHT22;8175;49.326;12.690;2023-06-04T10:46:15;29.70;49.20
16140;DHT22;8175;49.326;12.690;2023-06-04T10:48:51;28.10;46.80
16140;DHT22;8175;49.326;12.690;2023-06-04T10:51:29;28.50;57.80
16140;DHT22;8175;49.326;12.690;2023-06-04T10:54:00;29.30;48.40
16140;DHT22;8175;49.326;12.690;2023-06-04T10:56:31;27.40;51.40
16140;DHT22;8175;49.326;12.690;2023-06-04T10:59:19;25.90;49.20
16140;DHT22;8175;49.326;12.690;2023-06-04T11:01:45;25.70;53.10
16140;DHT22;8175;49.326;12.690;2023-06-04T11:04:25;27.50;51.00
16140;DHT22;8175;49.326;12.690;2023-06-04T11:07:04;28.30;53.40
16140;DHT22;8175;49.326;12.690;2023-06-04T11:09:47;28.50;49.30
16140;DHT22;8175;49.326;12.690;2023-06-04T11:12:13;29.20;51.60
16140;DHT22;8175;49.326;12.690;2023-06-04T11:14:38;29.70;50.20
16140;DHT22;8175;49.326;12.690;2023-06-04T11:17:12;30.00;48.60
16140;DHT22;8175;49.326;12.690;2023-06-04T11:19:38;29.00;50.70
16140;DHT22;8175;49.326;12.690;2023-06-04T11:22:05;28.60;51.50
16140;DHT22;8175;49.326;12.690;2023-06-04T11:24:32;28.10;51.90
16140;DHT22;8175;49.326;12.690;2023-06-04T11:26:58;27.70;50.60
16140;DHT22;8175;49.326;12.690;2023-06-04T11:29:28;28.00;49.70
16140;DHT22;8175;49.326;12.690;2023-06-04T11:31:53;27.70;59.70
16140;DHT22;8175;49.326;12.690;2023-06-04T11:34:26;28.50;52.70
16140;DHT22;8175;49.326;12.690;2023-06-04T11:36:53;29.50;55.20
16140;DHT22;8175;49.326;12.690;2023-06-04T11:39:19;30.10;53.20
16140;DHT22;8175;49.326;12.690;2023-06-04T11:41:45;27.70;51.70
16140;DHT22;8175;49.326;12.690;2023-06-04T11:44:12;27.30;51.80
16140;DHT22;8175;49.326;12.690;2023-06-04T11:46:42;28.00;49.80
16140;DHT22;8175;49.326;12.690;2023-06-04T11:49:18;28.80;48.00
16140;DHT22;8175;49.326;12.690;2023-06-04T11:51:51;28.10;52.00
16140;DHT22;8175;49.326;12.690;2023-06-04T11:54:18;28.30;52.00
16140;DHT22;8175;49.326;12.690;2023-06-04T11:56:45;28.20;52.20
16140;DHT22;8175;49.326;12.690;2023-06-04T11:59:15;27.10;55.70
16140;DHT22;8175;49.326;12.690;2023-06-04T12:01:42;28.70;52.80
16140;DHT22;8175;49.326;12.690;2023-06-04T12:04:15;29.70;48.70
16140;DHT22;8175;49.326;12.690;2023-06-04T12:06:54;29.80;52.50
16140;DHT22;8175;49.326;12.690;2023-06-04T12:09:30;29.50;52.70
16140;DHT22;8175;49.326;12.690;2023-06-04T12:12:04;29.90;52.00
16140;DHT22;8175;49.326;12.690;2023-06-04T12:14:31;30.40;48.90
16140;DHT22;8175;49.326;12.690;2023-06-04T12:17:10;30.40;49.50
16140;DHT22;8175;49.326;12.690;2023-06-04T12:19:50;30.20;48.80
16140;DHT22;8175;49.326;12.690;2023-06-04T12:22:16;30.10;46.60
16140;DHT22;8175;49.326;12.690;2023-06-04T12:24:57;28.60;48.80
16140;DHT22;8175;49.326;12.690;2023-06-04T12:27:24;28.20;51.90
16140;DHT22;8175;49.326;12.690;2023-06-04T12:30:01;27.80;50.60
16140;DHT22;8175;49.326;12.690;2023-06-04T12:32:27;26.90;52.00
16140;DHT22;8175;49.326;12.690;2023-06-04T12:34:53;27.90;54.10
16140;DHT22;8175;49.326;12.690;2023-06-04T12:37:18;29.20;53.80
16140;DHT22;8175;49.326;12.690;2023-06-04T12:39:44;28.00;54.60
16140;DHT22;8175;49.326;12.690;2023-06-04T12:42:10;27.50;52.30
16140;DHT22;8175;49.326;12.690;2023-06-04T12:44:36;28.90;52.10
16140;DHT22;8175;49.326;12.690;2023-06-04T12:47:05;28.70;51.10
16140;DHT22;8175;49.326;12.690;2023-06-04T12:49:31;27.50;51.50
16140;DHT22;8175;49.326;12.690;2023-06-04T12:51:57;28.90;53.70
16140;DHT22;8175;49.326;12.690;2023-06-04T12:54:23;28.60;46.30
16140;DHT22;8175;49.326;12.690;2023-06-04T12:56:48;28.00;49.80
16140;DHT22;8175;49.326;12.690;2023-06-04T12:59:14;27.10;52.70
16140;DHT22;8175;49.326;12.690;2023-06-04T13:01:40;26.20;51.40
16140;DHT22;8175;49.326;12.690;2023-06-04T13:04:06;26.80;53.00
16140;DHT22;8175;49.326;12.690;2023-06-04T13:06:34;26.70;52.40
16140;DHT22;8175;49.326;12.690;2023-06-04T13:09:01;27.50;49.70
16140;DHT22;8175;49.326;12.690;2023-06-04T13:11:28;28.40;49.60
16140;DHT22;8175;49.326;12.690;2023-06-04T13:13:54;28.50;50.50
16140;DHT22;8175;49.326;12.690;2023-06-04T13:16:19;27.50;52.00
16140;DHT22;8175;49.326;12.690;2023-06-04T13:18:45;28.70;48.90
16140;DHT22;8175;49.326;12.690;2023-06-04T13:21:12;28.70;49.30
16140;DHT22;8175;49.326;12.690;2023-06-04T13:23:37;28.50;52.80
16140;DHT22;8175;49.326;12.690;2023-06-04T13:26:03;27.90;53.60
16140;DHT22;8175;49.326;12.690;2023-06-04T13:28:28;28.90;51.80
16140;DHT22;8175;49.326;12.690;2023-06-04T13:30:54;29.50;51.80
16140;DHT22;8175;49.326;12.690;2023-06-04T13:33:20;28.40;47.60
16140;DHT22;8175;49.326;12.690;2023-06-04T13:35:47;27.90;47.90
16140;DHT22;8175;49.326;12.690;2023-06-04T13:38:12;27.70;50.50
16140;DHT22;8175;49.326;12.690;2023-06-04T13:40:38;25.90;54.20
16140;DHT22;8175;49.326;12.690;2023-06-04T13:43:07;25.90;56.50
16140;DHT22;8175;49.326;12.690;2023-06-04T13:45:34;27.30;52.80
16140;DHT22;8175;49.326;12.690;2023-06-04T13:47:59;28.90;50.90
16140;DHT22;8175;49.326;12.690;2023-06-04T13:50:30;28.00;50.10
16140;DHT22;8175;49.326;12.690;2023-06-04T13:52:56;28.20;53.40
16140;DHT22;8175;49.326;12.690;2023-06-04T13:55:22;27.90;55.10
16140;DHT22;8175;49.326;12.690;2023-06-04T13:57:47;26.40;52.80
16140;DHT22;8175;49.326;12.690;2023-06-04T14:00:14;25.90;54.60
16140;DHT22;8175;49.326;12.690;2023-06-04T14:02:40;26.60;50.40
16140;DHT22;8175;49.326;12.690;2023-06-04T14:05:06;26.30;52.50
16140;DHT22;8175;49.326;12.690;2023-06-04T14:07:32;25.60;55.30
16140;DHT22;8175;49.326;12.690;2023-06-04T14:09:58;27.00;53.40
16140;DHT22;8175;49.326;12.690;2023-06-04T14:12:24;27.70;53.20
16140;DHT22;8175;49.326;12.690;2023-06-04T14:14:50;28.50;51.50
16140;DHT22;8175;49.326;12.690;2023-06-04T14:17:16;29.20;51.40
16140;DHT22;8175;49.326;12.690;2023-06-04T14:19:42;28.40;50.40
16140;DHT22;8175;49.326;12.690;2023-06-04T14:22:09;29.30;52.60
16140;DHT22;8175;49.326;12.690;2023-06-04T14:24:35;27.90;50.40
16140;DHT22;8175;49.326;12.690;2023-06-04T14:27:00;26.60;54.30
16140;DHT22;8175;49.326;12.690;2023-06-04T14:29:26;26.10;53.10
16140;DHT22;8175;49.326;12.690;2023-06-04T14:31:51;26.10;59.40
16140;DHT22;8175;49.326;12.690;2023-06-04T14:34:17;26.50;54.80
16140;DHT22;8175;49.326;12.690;2023-06-04T14:36:43;27.70;51.10
16140;DHT22;8175;49.326;12.690;2023-06-04T14:39:08;28.00;51.00
16140;DHT22;8175;49.326;12.690;2023-06-04T14:41:34;28.00;50.90
16140;DHT22;8175;49.326;12.690;2023-06-04T14:44:00;27.40;50.70
16140;DHT22;8175;49.326;12.690;2023-06-04T14:46:26;26.80;52.70
16140;DHT22;8175;49.326;12.690;2023-06-04T14:48:52;25.80;53.60
16140;DHT22;8175;49.326;12.690;2023-06-04T14:51:19;26.00;52.60
16140;DHT22;8175;49.326;12.690;2023-06-04T14:53:45;27.00;55.20
16140;DHT22;8175;49.326;12.690;2023-06-04T14:56:10;27.80;51.70
16140;DHT22;8175;49.326;12.690;2023-06-04T14:58:36;28.10;49.40
16140;DHT22;8175;49.326;12.690;2023-06-04T15:01:02;27.90;51.50
16140;DHT22;8175;49.326;12.690;2023-06-04T15:03:29;27.70;52.30
16140;DHT22;8175;49.326;12.690;2023-06-04T15:05:56;28.80;51.70
16140;DHT22;8175;49.326;12.690;2023-06-04T15:08:22;28.10;48.90
16140;DHT22;8175;49.326;12.690;2023-06-04T15:10:47;28.10;51.30
16140;DHT22;8175;49.326;12.690;2023-06-04T15:13:13;27.60;48.00
16140;DHT22;8175;49.326;12.690;2023-06-04T15:15:39;27.70;51.60
16140;DHT22;8175;49.326;12.690;2023-06-04T15:18:04;27.00;47.80
16140;DHT22;8175;49.326;12.690;2023-06-04T15:20:32;27.10;52.10
16140;DHT22;8175;49.326;12.690;2023-06-04T15:22:57;27.40;50.70
16140;DHT22;8175;49.326;12.690;2023-06-04T15:25:23;26.70;52.80
16140;DHT22;8175;49.326;12.690;2023-06-04T15:27:49;27.10;53.20
16140;DHT22;8175;49.326;12.690;2023-06-04T15:30:15;26.70;49.00
16140;DHT22;8175;49.326;12.690;2023-06-04T15:32:42;27.60;50.50
16140;DHT22;8175;49.326;12.690;2023-06-04T15:35:09;27.70;49.80
16140;DHT22;8175;49.326;12.690;2023-06-04T15:37:36;27.10;48.10
16140;DHT22;8175;49.326;12.690;2023-06-04T15:40:02;27.00;50.00
16140;DHT22;8175;49.326;12.690;2023-06-04T15:42:28;26.20;51.20
16140;DHT22;8175;49.326;12.690;2023-06-04T15:44:54;26.30;52.40
16140;DHT22;8175;49.326;12.690;2023-06-04T15:47:19;25.90;49.00
16140;DHT22;8175;49.326;12.690;2023-06-04T15:49:45;25.50;52.50
16140;DHT22;8175;49.326;12.690;2023-06-04T15:52:11;25.80;52.40
16140;DHT22;8175;49.326;12.690;2023-06-04T15:54:36;26.20;51.60
16140;DHT22;8175;49.326;12.690;2023-06-04T15:57:02;26.40;51.40
16140;DHT22;8175;49.326;12.690;2023-06-04T15:59:28;26.70;53.00
16140;DHT22;8175;49.326;12.690;2023-06-04T16:01:53;26.40;47.50
16140;DHT22;8175;49.326;12.690;2023-06-04T16:04:19;27.00;50.60
16140;DHT22;8175;49.326;12.690;2023-06-04T16:06:44;26.70;49.70
16140;DHT22;8175;49.326;12.690;2023-06-04T16:09:10;25.90;48.50
16140;DHT22;8175;49.326;12.690;2023-06-04T16:11:36;26.20;53.00
16140;DHT22;8175;49.326;12.690;2023-06-04T16:14:02;25.90;54.40
16140;DHT22;8175;49.326;12.690;2023-06-04T16:16:28;26.00;52.60
16140;DHT22;8175;49.326;12.690;2023-06-04T16:18:54;25.10;51.70
16140;DHT22;8175;49.326;12.690;2023-06-04T16:21:20;24.50;53.30
16140;DHT22;8175;49.326;12.690;2023-06-04T16:23:46;24.60;56.30
16140;DHT22;8175;49.326;12.690;2023-06-04T16:26:12;24.40;52.10
16140;DHT22;8175;49.326;12.690;2023-06-04T16:28:38;24.30;57.40
16140;DHT22;8175;49.326;12.690;2023-06-04T16:31:04;24.50;51.40
16140;DHT22;8175;49.326;12.690;2023-06-04T16:33:29;24.00;52.50
16140;DHT22;8175;49.326;12.690;2023-06-04T16:35:55;23.50;52.10
16140;DHT22;8175;49.326;12.690;2023-06-04T16:38:21;23.70;55.20